sensor_id;sensor_type;location;lat;lon;timestamp;P1;durP1;ratioP1;P2;durP2;ratioP2
23586;SDS011;11971;51.148;4.104;2023-02-01T00:00:10;83.03;;;35.85;;
23586;SDS011;11971;51.148;4.104;2023-02-01T00:02:37;86.50;;;35.65;;
23586;SDS011;11971;51.148;4.104;2023-02-01T00:05:08;81.32;;;36.65;;
23586;SDS011;11971;51.148;4.104;2023-02-01T00:07:35;77.47;;;34.95;;
23586;SDS011;11971;51.148;4.104;2023-02-01T00:10:02;80.47;;;35.03;;
23586;SDS011;11971;51.148;4.104;2023-02-01T00:12:30;77.32;;;35.10;;
23586;SDS011;11971;51.148;4.104;2023-02-01T00:14:58;84.85;;;35.72;;
23586;SDS011;11971;51.148;4.104;2023-02-01T00:17:24;84.55;;;34.90;;
23586;SDS011;11971;51.148;4.104;2023-02-01T00:19:51;86.28;;;35.50;;
23586;SDS011;11971;51.148;4.104;2023-02-01T00:22:19;81.75;;;35.38;;
23586;SDS011;11971;51.148;4.104;2023-02-01T00:24:46;76.97;;;34.33;;
23586;SDS011;11971;51.148;4.104;2023-02-01T00:27:13;82.15;;;35.05;;
23586;SDS011;11971;51.148;4.104;2023-02-01T00:29:42;78.45;;;34.88;;
23586;SDS011;11971;51.148;4.104;2023-02-01T00:32:10;76.32;;;33.95;;
23586;SDS011;11971;51.148;4.104;2023-02-01T00:34:36;85.53;;;34.92;;
23586;SDS011;11971;51.148;4.104;2023-02-01T00:37:03;77.50;;;33.90;;
23586;SDS011;11971;51.148;4.104;2023-02-01T00:39:33;85.20;;;34.00;;
23586;SDS011;11971;51.148;4.104;2023-02-01T00:41:59;79.57;;;34.33;;
23586;SDS011;11971;51.148;4.104;2023-02-01T00:44:26;77.07;;;33.70;;
23586;SDS011;11971;51.148;4.104;2023-02-01T00:46:58;80.82;;;33.08;;
23586;SDS011;11971;51.148;4.104;2023-02-01T00:49:25;74.20;;;33.78;;
23586;SDS011;11971;51.148;4.104;2023-02-01T00:51:54;73.85;;;33.35;;
23586;SDS011;11971;51.148;4.104;2023-02-01T00:54:21;75.80;;;33.83;;
23586;SDS011;11971;51.148;4.104;2023-02-01T00:56:50;70.18;;;32.17;;
23586;SDS011;11971;51.148;4.104;2023-02-01T00:59:17;76.00;;;33.38;;
23586;SDS011;11971;51.148;4.104;2023-02-01T01:01:43;78.65;;;33.33;;
23586;SDS011;11971;51.148;4.104;2023-02-01T01:04:10;83.90;;;33.60;;
23586;SDS011;11971;51.148;4.104;2023-02-01T01:06:37;78.75;;;32.65;;
23586;SDS011;11971;51.148;4.104;2023-02-01T01:09:04;79.80;;;34.22;;
23586;SDS011;11971;51.148;4.104;2023-02-01T01:11:33;77.65;;;32.95;;
23586;SDS011;11971;51.148;4.104;2023-02-01T01:14:04;76.95;;;33.40;;
23586;SDS011;11971;51.148;4.104;2023-02-01T01:18:58;70.93;;;32.45;;
23586;SDS011;11971;51.148;4.104;2023-02-01T01:21:25;70.95;;;32.95;;
23586;SDS011;11971;51.148;4.104;2023-02-01T01:23:52;75.07;;;33.83;;
23586;SDS011;11971;51.148;4.104;2023-02-01T01:26:20;74.75;;;33.55;;
23586;SDS011;11971;51.148;4.104;2023-02-01T01:28:48;72.97;;;33.35;;
23586;SDS011;11971;51.148;4.104;2023-02-01T01:31:20;71.70;;;33.33;;
23586;SDS011;11971;51.148;4.104;2023-02-01T01:33:48;74.28;;;33.40;;
23586;SDS011;11971;51.148;4.104;2023-02-01T01:36:15;73.22;;;31.75;;
23586;SDS011;11971;51.148;4.104;2023-02-01T01:38:44;76.72;;;33.45;;
23586;SDS011;11971;51.148;4.104;2023-02-01T01:41:14;76.80;;;33.40;;
23586;SDS011;11971;51.148;4.104;2023-02-01T01:43:46;72.38;;;32.40;;
23586;SDS011;11971;51.148;4.104;2023-02-01T01:46:15;76.13;;;32.70;;
23586;SDS011;11971;51.148;4.104;2023-02-01T01:48:44;72.93;;;32.13;;
23586;SDS011;11971;51.148;4.104;2023-02-01T01:51:17;73.97;;;32.78;;
23586;SDS011;11971;51.148;4.104;2023-02-01T01:53:48;73.10;;;32.53;;
23586;SDS011;11971;51.148;4.104;2023-02-01T01:56:20;69.93;;;32.00;;
23586;SDS011;11971;51.148;4.104;2023-02-01T01:58:47;67.13;;;31.58;;
23586;SDS011;11971;51.148;4.104;2023-02-01T02:01:14;69.53;;;32.60;;
23586;SDS011;11971;51.148;4.104;2023-02-01T02:03:42;77.55;;;33.72;;
23586;SDS011;11971;51.148;4.104;2023-02-01T02:06:15;84.40;;;34.50;;
23586;SDS011;11971;51.148;4.104;2023-02-01T02:08:43;73.25;;;33.17;;
23586;SDS011;11971;51.148;4.104;2023-02-01T02:11:11;75.00;;;33.33;;
23586;SDS011;11971;51.148;4.104;2023-02-01T02:13:41;70.65;;;32.63;;
23586;SDS011;11971;51.148;4.104;2023-02-01T02:16:16;79.93;;;33.22;;
23586;SDS011;11971;51.148;4.104;2023-02-01T02:18:56;76.75;;;32.92;;
23586;SDS011;11971;51.148;4.104;2023-02-01T02:21:34;69.53;;;32.53;;
23586;SDS011;11971;51.148;4.104;2023-02-01T02:24:17;72.05;;;32.67;;
23586;SDS011;11971;51.148;4.104;2023-02-01T02:27:06;68.78;;;32.00;;
23586;SDS011;11971;51.148;4.104;2023-02-01T02:29:56;68.35;;;31.65;;
23586;SDS011;11971;51.148;4.104;2023-02-01T02:32:46;74.10;;;32.00;;
23586;SDS011;11971;51.148;4.104;2023-02-01T02:35:21;72.75;;;32.72;;
23586;SDS011;11971;51.148;4.104;2023-02-01T02:37:56;84.43;;;33.25;;
23586;SDS011;11971;51.148;4.104;2023-02-01T02:40:30;73.22;;;32.67;;
23586;SDS011;11971;51.148;4.104;2023-02-01T02:43:00;73.43;;;33.20;;
23586;SDS011;11971;51.148;4.104;2023-02-01T02:45:49;70.53;;;32.30;;
23586;SDS011;11971;51.148;4.104;2023-02-01T02:48:41;68.43;;;31.65;;
23586;SDS011;11971;51.148;4.104;2023-02-01T02:51:15;62.55;;;31.05;;
23586;SDS011;11971;51.148;4.104;2023-02-01T02:54:05;72.15;;;32.47;;
23586;SDS011;11971;51.148;4.104;2023-02-01T02:56:50;70.68;;;31.75;;
23586;SDS011;11971;51.148;4.104;2023-02-01T02:59:35;71.20;;;31.90;;
23586;SDS011;11971;51.148;4.104;2023-02-01T03:02:21;74.10;;;32.03;;
23586;SDS011;11971;51.148;4.104;2023-02-01T03:05:06;70.47;;;32.55;;
23586;SDS011;11971;51.148;4.104;2023-02-01T03:07:49;76.22;;;32.85;;
23586;SDS011;11971;51.148;4.104;2023-02-01T03:10:24;79.28;;;32.65;;
23586;SDS011;11971;51.148;4.104;2023-02-01T03:12:59;68.35;;;32.00;;
23586;SDS011;11971;51.148;4.104;2023-02-01T03:15:30;74.82;;;32.90;;
23586;SDS011;11971;51.148;4.104;2023-02-01T03:17:59;72.80;;;32.30;;
23586;SDS011;11971;51.148;4.104;2023-02-01T03:20:27;83.93;;;32.73;;
23586;SDS011;11971;51.148;4.104;2023-02-01T03:22:57;76.55;;;32.42;;
23586;SDS011;11971;51.148;4.104;2023-02-01T03:25:28;69.25;;;31.48;;
23586;SDS011;11971;51.148;4.104;2023-02-01T03:27:58;78.03;;;32.47;;
23586;SDS011;11971;51.148;4.104;2023-02-01T03:32:54;68.57;;;31.67;;
23586;SDS011;11971;51.148;4.104;2023-02-01T03:35:29;72.50;;;32.45;;
23586;SDS011;11971;51.148;4.104;2023-02-01T03:38:01;68.75;;;32.35;;
23586;SDS011;11971;51.148;4.104;2023-02-01T03:40:32;75.00;;;32.85;;
23586;SDS011;11971;51.148;4.104;2023-02-01T03:42:59;73.68;;;32.90;;
23586;SDS011;11971;51.148;4.104;2023-02-01T03:45:31;74.25;;;32.85;;
23586;SDS011;11971;51.148;4.104;2023-02-01T03:48:01;76.40;;;32.42;;
23586;SDS011;11971;51.148;4.104;2023-02-01T03:50:29;67.17;;;32.13;;
23586;SDS011;11971;51.148;4.104;2023-02-01T03:52:59;77.90;;;32.30;;
23586;SDS011;11971;51.148;4.104;2023-02-01T03:55:29;74.07;;;32.50;;
23586;SDS011;11971;51.148;4.104;2023-02-01T03:57:57;78.60;;;33.13;;
23586;SDS011;11971;51.148;4.104;2023-02-01T04:00:27;80.07;;;32.90;;
23586;SDS011;11971;51.148;4.104;2023-02-01T04:02:54;78.95;;;32.53;;
23586;SDS011;11971;51.148;4.104;2023-02-01T04:05:21;70.00;;;32.00;;
23586;SDS011;11971;51.148;4.104;2023-02-01T04:07:48;77.43;;;32.42;;
23586;SDS011;11971;51.148;4.104;2023-02-01T04:10:17;76.13;;;32.60;;
23586;SDS011;11971;51.148;4.104;2023-02-01T04:12:43;77.35;;;32.47;;
23586;SDS011;11971;51.148;4.104;2023-02-01T04:15:10;71.90;;;32.60;;
23586;SDS011;11971;51.148;4.104;2023-02-01T04:17:37;69.15;;;31.92;;
23586;SDS011;11971;51.148;4.104;2023-02-01T04:20:04;68.35;;;32.45;;
23586;SDS011;11971;51.148;4.104;2023-02-01T04:22:34;72.88;;;32.20;;
23586;SDS011;11971;51.148;4.104;2023-02-01T04:25:01;73.00;;;32.75;;
23586;SDS011;11971;51.148;4.104;2023-02-01T04:27:29;69.07;;;32.00;;
23586;SDS011;11971;51.148;4.104;2023-02-01T04:29:57;77.30;;;32.33;;
23586;SDS011;11971;51.148;4.104;2023-02-01T04:32:24;80.93;;;32.88;;
23586;SDS011;11971;51.148;4.104;2023-02-01T04:34:51;75.65;;;32.53;;
23586;SDS011;11971;51.148;4.104;2023-02-01T04:37:18;70.32;;;32.58;;
23586;SDS011;11971;51.148;4.104;2023-02-01T04:39:44;69.07;;;32.45;;
23586;SDS011;11971;51.148;4.104;2023-02-01T04:42:11;70.15;;;33.13;;
23586;SDS011;11971;51.148;4.104;2023-02-01T04:44:39;79.43;;;31.70;;
23586;SDS011;11971;51.148;4.104;2023-02-01T04:47:07;79.63;;;32.20;;
23586;SDS011;11971;51.148;4.104;2023-02-01T04:49:36;74.80;;;32.00;;
23586;SDS011;11971;51.148;4.104;2023-02-01T04:52:06;73.05;;;32.45;;
23586;SDS011;11971;51.148;4.104;2023-02-01T04:54:32;76.80;;;32.80;;
23586;SDS011;11971;51.148;4.104;2023-02-01T04:56:59;76.70;;;32.63;;
23586;SDS011;11971;51.148;4.104;2023-02-01T04:59:26;71.72;;;32.03;;
23586;SDS011;11971;51.148;4.104;2023-02-01T05:01:55;72.47;;;32.60;;
23586;SDS011;11971;51.148;4.104;2023-02-01T05:04:22;69.72;;;32.05;;
23586;SDS011;11971;51.148;4.104;2023-02-01T05:06:50;70.15;;;32.38;;
23586;SDS011;11971;51.148;4.104;2023-02-01T05:09:17;78.05;;;32.67;;
23586;SDS011;11971;51.148;4.104;2023-02-01T05:11:45;75.13;;;32.22;;
23586;SDS011;11971;51.148;4.104;2023-02-01T05:14:30;68.68;;;32.13;;
23586;SDS011;11971;51.148;4.104;2023-02-01T05:16:58;70.72;;;32.03;;
23586;SDS011;11971;51.148;4.104;2023-02-01T05:19:26;62.08;;;30.17;;
23586;SDS011;11971;51.148;4.104;2023-02-01T05:21:53;71.78;;;32.33;;
23586;SDS011;11971;51.148;4.104;2023-02-01T05:24:20;76.57;;;32.45;;
23586;SDS011;11971;51.148;4.104;2023-02-01T05:26:50;75.55;;;32.20;;
23586;SDS011;11971;51.148;4.104;2023-02-01T05:29:17;74.03;;;32.35;;
23586;SDS011;11971;51.148;4.104;2023-02-01T05:31:46;65.45;;;31.60;;
23586;SDS011;11971;51.148;4.104;2023-02-01T05:34:15;73.15;;;32.00;;
23586;SDS011;11971;51.148;4.104;2023-02-01T05:36:42;70.13;;;32.45;;
23586;SDS011;11971;51.148;4.104;2023-02-01T05:39:08;79.82;;;32.35;;
23586;SDS011;11971;51.148;4.104;2023-02-01T05:41:35;82.97;;;33.35;;
23586;SDS011;11971;51.148;4.104;2023-02-01T05:44:02;70.72;;;33.78;;
23586;SDS011;11971;51.148;4.104;2023-02-01T05:46:30;72.30;;;32.83;;
23586;SDS011;11971;51.148;4.104;2023-02-01T05:48:57;67.95;;;32.50;;
23586;SDS011;11971;51.148;4.104;2023-02-01T05:51:25;73.45;;;32.88;;
23586;SDS011;11971;51.148;4.104;2023-02-01T05:53:52;74.15;;;33.30;;
23586;SDS011;11971;51.148;4.104;2023-02-01T05:56:19;64.00;;;31.63;;
23586;SDS011;11971;51.148;4.104;2023-02-01T05:58:46;73.55;;;32.38;;
23586;SDS011;11971;51.148;4.104;2023-02-01T06:01:12;69.03;;;32.45;;
23586;SDS011;11971;51.148;4.104;2023-02-01T06:03:39;72.82;;;32.10;;
23586;SDS011;11971;51.148;4.104;2023-02-01T06:06:08;74.65;;;32.88;;
23586;SDS011;11971;51.148;4.104;2023-02-01T06:08:36;79.97;;;32.30;;
23586;SDS011;11971;51.148;4.104;2023-02-01T06:11:05;69.18;;;32.13;;
23586;SDS011;11971;51.148;4.104;2023-02-01T06:13:32;67.25;;;31.73;;
23586;SDS011;11971;51.148;4.104;2023-02-01T06:16:00;75.75;;;32.60;;
23586;SDS011;11971;51.148;4.104;2023-02-01T06:18:28;66.90;;;32.08;;
23586;SDS011;11971;51.148;4.104;2023-02-01T06:20:55;69.97;;;32.03;;
23586;SDS011;11971;51.148;4.104;2023-02-01T06:23:25;70.15;;;32.70;;
23586;SDS011;11971;51.148;4.104;2023-02-01T06:25:57;70.00;;;32.10;;
23586;SDS011;11971;51.148;4.104;2023-02-01T06:28:25;70.65;;;31.88;;
23586;SDS011;11971;51.148;4.104;2023-02-01T06:30:51;75.60;;;33.22;;
23586;SDS011;11971;51.148;4.104;2023-02-01T06:33:18;69.13;;;32.33;;
23586;SDS011;11971;51.148;4.104;2023-02-01T06:35:45;72.57;;;33.13;;
23586;SDS011;11971;51.148;4.104;2023-02-01T06:38:12;74.97;;;32.90;;
23586;SDS011;11971;51.148;4.104;2023-02-01T06:40:39;71.95;;;32.92;;
23586;SDS011;11971;51.148;4.104;2023-02-01T06:43:08;77.35;;;32.78;;
23586;SDS011;11971;51.148;4.104;2023-02-01T06:45:35;83.28;;;33.70;;
23586;SDS011;11971;51.148;4.104;2023-02-01T06:48:02;78.35;;;33.50;;
23586;SDS011;11971;51.148;4.104;2023-02-01T06:50:28;72.65;;;32.17;;
23586;SDS011;11971;51.148;4.104;2023-02-01T06:52:56;72.45;;;32.67;;
23586;SDS011;11971;51.148;4.104;2023-02-01T06:55:22;76.93;;;33.50;;
23586;SDS011;11971;51.148;4.104;2023-02-01T06:57:52;73.68;;;32.92;;
23586;SDS011;11971;51.148;4.104;2023-02-01T07:00:21;74.28;;;32.17;;
23586;SDS011;11971;51.148;4.104;2023-02-01T07:05:15;76.78;;;33.58;;
23586;SDS011;11971;51.148;4.104;2023-02-01T07:07:42;74.75;;;33.75;;
23586;SDS011;11971;51.148;4.104;2023-02-01T07:10:09;76.25;;;35.20;;
23586;SDS011;11971;51.148;4.104;2023-02-01T07:12:36;90.40;;;35.25;;
23586;SDS011;11971;51.148;4.104;2023-02-01T07:15:03;89.70;;;37.05;;
23586;SDS011;11971;51.148;4.104;2023-02-01T07:17:32;80.28;;;34.25;;
23586;SDS011;11971;51.148;4.104;2023-02-01T07:19:59;69.93;;;32.60;;
23586;SDS011;11971;51.148;4.104;2023-02-01T07:22:26;66.72;;;32.85;;
23586;SDS011;11971;51.148;4.104;2023-02-01T07:24:53;78.72;;;33.70;;
23586;SDS011;11971;51.148;4.104;2023-02-01T07:27:20;79.13;;;35.25;;
23586;SDS011;11971;51.148;4.104;2023-02-01T07:29:49;76.97;;;33.53;;
23586;SDS011;11971;51.148;4.104;2023-02-01T07:32:16;73.72;;;33.53;;
23586;SDS011;11971;51.148;4.104;2023-02-01T07:34:44;78.65;;;33.83;;
23586;SDS011;11971;51.148;4.104;2023-02-01T07:37:11;62.73;;;32.03;;
23586;SDS011;11971;51.148;4.104;2023-02-01T07:39:38;62.15;;;30.95;;
23586;SDS011;11971;51.148;4.104;2023-02-01T07:42:05;72.93;;;33.10;;
23586;SDS011;11971;51.148;4.104;2023-02-01T07:44:32;76.95;;;33.63;;
23586;SDS011;11971;51.148;4.104;2023-02-01T07:46:58;73.60;;;33.58;;
23586;SDS011;11971;51.148;4.104;2023-02-01T07:49:25;75.45;;;33.47;;
23586;SDS011;11971;51.148;4.104;2023-02-01T07:51:53;68.97;;;32.58;;
23586;SDS011;11971;51.148;4.104;2023-02-01T07:54:20;81.70;;;33.80;;
23586;SDS011;11971;51.148;4.104;2023-02-01T07:56:46;76.90;;;32.83;;
23586;SDS011;11971;51.148;4.104;2023-02-01T07:59:13;72.40;;;33.05;;
23586;SDS011;11971;51.148;4.104;2023-02-01T08:01:41;78.72;;;32.67;;
23586;SDS011;11971;51.148;4.104;2023-02-01T08:04:07;74.97;;;32.65;;
23586;SDS011;11971;51.148;4.104;2023-02-01T08:06:37;84.20;;;34.35;;
23586;SDS011;11971;51.148;4.104;2023-02-01T08:09:05;71.47;;;33.72;;
23586;SDS011;11971;51.148;4.104;2023-02-01T08:11:33;76.88;;;32.95;;
23586;SDS011;11971;51.148;4.104;2023-02-01T08:14:01;75.03;;;33.25;;
23586;SDS011;11971;51.148;4.104;2023-02-01T08:16:28;73.97;;;31.77;;
23586;SDS011;11971;51.148;4.104;2023-02-01T08:18:54;80.22;;;32.72;;
23586;SDS011;11971;51.148;4.104;2023-02-01T08:21:22;68.57;;;32.67;;
23586;SDS011;11971;51.148;4.104;2023-02-01T08:23:50;75.70;;;33.88;;
23586;SDS011;11971;51.148;4.104;2023-02-01T08:26:19;75.22;;;34.65;;
23586;SDS011;11971;51.148;4.104;2023-02-01T08:28:53;75.65;;;32.58;;
23586;SDS011;11971;51.148;4.104;2023-02-01T08:31:22;69.05;;;31.85;;
23586;SDS011;11971;51.148;4.104;2023-02-01T08:33:51;66.18;;;32.28;;
23586;SDS011;11971;51.148;4.104;2023-02-01T08:36:19;69.20;;;32.50;;
23586;SDS011;11971;51.148;4.104;2023-02-01T08:38:46;71.03;;;32.50;;
23586;SDS011;11971;51.148;4.104;2023-02-01T08:41:13;67.53;;;32.13;;
23586;SDS011;11971;51.148;4.104;2023-02-01T08:43:43;72.55;;;32.78;;
23586;SDS011;11971;51.148;4.104;2023-02-01T08:46:11;79.30;;;33.58;;
23586;SDS011;11971;51.148;4.104;2023-02-01T08:48:38;76.68;;;33.80;;
23586;SDS011;11971;51.148;4.104;2023-02-01T08:51:06;81.00;;;33.17;;
23586;SDS011;11971;51.148;4.104;2023-02-01T08:53:33;78.00;;;33.00;;
23586;SDS011;11971;51.148;4.104;2023-02-01T08:56:00;77.78;;;33.08;;
23586;SDS011;11971;51.148;4.104;2023-02-01T08:58:27;76.65;;;33.30;;
23586;SDS011;11971;51.148;4.104;2023-02-01T09:00:55;81.75;;;34.05;;
23586;SDS011;11971;51.148;4.104;2023-02-01T09:03:22;80.43;;;33.03;;
23586;SDS011;11971;51.148;4.104;2023-02-01T09:05:49;88.93;;;35.97;;
23586;SDS011;11971;51.148;4.104;2023-02-01T09:08:15;81.93;;;37.35;;
23586;SDS011;11971;51.148;4.104;2023-02-01T09:10:43;75.50;;;33.95;;
23586;SDS011;11971;51.148;4.104;2023-02-01T09:13:10;80.07;;;33.50;;
23586;SDS011;11971;51.148;4.104;2023-02-01T09:15:37;79.70;;;33.58;;
23586;SDS011;11971;51.148;4.104;2023-02-01T09:18:05;80.43;;;34.10;;
23586;SDS011;11971;51.148;4.104;2023-02-01T09:20:32;73.53;;;33.27;;
23586;SDS011;11971;51.148;4.104;2023-02-01T09:22:59;73.10;;;32.22;;
23586;SDS011;11971;51.148;4.104;2023-02-01T09:25:26;76.07;;;32.90;;
23586;SDS011;11971;51.148;4.104;2023-02-01T09:27:53;76.13;;;32.75;;
23586;SDS011;11971;51.148;4.104;2023-02-01T09:30:20;83.75;;;34.25;;
23586;SDS011;11971;51.148;4.104;2023-02-01T09:32:47;83.80;;;34.55;;
23586;SDS011;11971;51.148;4.104;2023-02-01T09:35:15;76.53;;;33.92;;
23586;SDS011;11971;51.148;4.104;2023-02-01T09:37:43;73.45;;;32.60;;
23586;SDS011;11971;51.148;4.104;2023-02-01T09:40:12;81.60;;;34.45;;
23586;SDS011;11971;51.148;4.104;2023-02-01T09:42:47;83.00;;;33.95;;
23586;SDS011;11971;51.148;4.104;2023-02-01T09:45:20;74.60;;;33.00;;
23586;SDS011;11971;51.148;4.104;2023-02-01T09:47:51;73.68;;;32.92;;
23586;SDS011;11971;51.148;4.104;2023-02-01T09:50:22;73.20;;;32.78;;
23586;SDS011;11971;51.148;4.104;2023-02-01T09:52:55;73.07;;;33.00;;
23586;SDS011;11971;51.148;4.104;2023-02-01T09:55:26;74.40;;;32.70;;
23586;SDS011;11971;51.148;4.104;2023-02-01T09:58:00;72.25;;;33.33;;
23586;SDS011;11971;51.148;4.104;2023-02-01T10:00:29;69.57;;;33.05;;
23586;SDS011;11971;51.148;4.104;2023-02-01T10:02:57;85.03;;;34.17;;
23586;SDS011;11971;51.148;4.104;2023-02-01T10:05:30;78.30;;;33.10;;
23586;SDS011;11971;51.148;4.104;2023-02-01T10:08:04;70.90;;;32.58;;
23586;SDS011;11971;51.148;4.104;2023-02-01T10:10:37;72.85;;;34.03;;
23586;SDS011;11971;51.148;4.104;2023-02-01T10:13:15;75.07;;;32.92;;
23586;SDS011;11971;51.148;4.104;2023-02-01T10:15:52;74.65;;;32.80;;
23586;SDS011;11971;51.148;4.104;2023-02-01T10:21:18;78.75;;;33.03;;
23586;SDS011;11971;51.148;4.104;2023-02-01T10:24:02;77.32;;;33.50;;
23586;SDS011;11971;51.148;4.104;2023-02-01T10:26:41;76.60;;;32.83;;
23586;SDS011;11971;51.148;4.104;2023-02-01T10:29:12;73.05;;;33.38;;
23586;SDS011;11971;51.148;4.104;2023-02-01T10:31:42;74.38;;;32.90;;
23586;SDS011;11971;51.148;4.104;2023-02-01T10:34:11;72.35;;;32.33;;
23586;SDS011;11971;51.148;4.104;2023-02-01T10:36:47;70.35;;;32.95;;
23586;SDS011;11971;51.148;4.104;2023-02-01T10:39:17;77.25;;;33.28;;
23586;SDS011;11971;51.148;4.104;2023-02-01T10:41:44;85.07;;;33.83;;
23586;SDS011;11971;51.148;4.104;2023-02-01T10:44:11;71.68;;;32.92;;
23586;SDS011;11971;51.148;4.104;2023-02-01T10:46:40;78.47;;;34.47;;
23586;SDS011;11971;51.148;4.104;2023-02-01T10:49:09;75.30;;;32.75;;
23586;SDS011;11971;51.148;4.104;2023-02-01T10:51:42;81.57;;;33.50;;
23586;SDS011;11971;51.148;4.104;2023-02-01T10:54:15;80.18;;;34.38;;
23586;SDS011;11971;51.148;4.104;2023-02-01T10:56:45;79.72;;;33.45;;
23586;SDS011;11971;51.148;4.104;2023-02-01T10:59:15;78.97;;;33.47;;
23586;SDS011;11971;51.148;4.104;2023-02-01T11:01:43;76.05;;;32.75;;
23586;SDS011;11971;51.148;4.104;2023-02-01T11:04:12;78.43;;;33.03;;
23586;SDS011;11971;51.148;4.104;2023-02-01T11:06:40;76.88;;;33.17;;
23586;SDS011;11971;51.148;4.104;2023-02-01T11:09:18;80.32;;;34.45;;
23586;SDS011;11971;51.148;4.104;2023-02-01T11:11:53;77.22;;;33.85;;
23586;SDS011;11971;51.148;4.104;2023-02-01T11:14:32;78.43;;;32.92;;
23586;SDS011;11971;51.148;4.104;2023-02-01T11:17:02;75.88;;;33.05;;
23586;SDS011;11971;51.148;4.104;2023-02-01T11:19:44;70.68;;;32.55;;
23586;SDS011;11971;51.148;4.104;2023-02-01T11:24:44;79.57;;;33.22;;
23586;SDS011;11971;51.148;4.104;2023-02-01T11:27:12;77.82;;;33.28;;
23586;SDS011;11971;51.148;4.104;2023-02-01T11:29:41;69.40;;;32.92;;
23586;SDS011;11971;51.148;4.104;2023-02-01T11:32:10;67.88;;;32.33;;
23586;SDS011;11971;51.148;4.104;2023-02-01T11:34:41;77.07;;;33.70;;
23586;SDS011;11971;51.148;4.104;2023-02-01T11:37:13;78.55;;;33.65;;
23586;SDS011;11971;51.148;4.104;2023-02-01T11:39:44;71.45;;;32.65;;
23586;SDS011;11971;51.148;4.104;2023-02-01T11:42:19;70.43;;;32.90;;
23586;SDS011;11971;51.148;4.104;2023-02-01T11:44:46;72.40;;;33.45;;
23586;SDS011;11971;51.148;4.104;2023-02-01T11:47:20;81.32;;;34.22;;
23586;SDS011;11971;51.148;4.104;2023-02-01T11:49:50;71.50;;;33.08;;
23586;SDS011;11971;51.148;4.104;2023-02-01T11:52:18;72.97;;;33.22;;
23586;SDS011;11971;51.148;4.104;2023-02-01T11:55:01;72.97;;;33.80;;
23586;SDS011;11971;51.148;4.104;2023-02-01T11:57:41;71.65;;;32.75;;
23586;SDS011;11971;51.148;4.104;2023-02-01T12:00:24;74.38;;;33.42;;
23586;SDS011;11971;51.148;4.104;2023-02-01T12:06:07;77.95;;;33.45;;
23586;SDS011;11971;51.148;4.104;2023-02-01T12:11:19;72.05;;;33.30;;
23586;SDS011;11971;51.148;4.104;2023-02-01T12:13:53;76.63;;;33.40;;
23586;SDS011;11971;51.148;4.104;2023-02-01T12:16:28;72.93;;;32.88;;
23586;SDS011;11971;51.148;4.104;2023-02-01T12:19:14;70.90;;;32.47;;
23586;SDS011;11971;51.148;4.104;2023-02-01T12:21:52;75.47;;;32.90;;
23586;SDS011;11971;51.148;4.104;2023-02-01T12:24:31;69.45;;;32.13;;
23586;SDS011;11971;51.148;4.104;2023-02-01T12:27:13;69.70;;;33.15;;
23586;SDS011;11971;51.148;4.104;2023-02-01T12:29:57;79.45;;;33.20;;
23586;SDS011;11971;51.148;4.104;2023-02-01T12:32:41;70.28;;;32.70;;
23586;SDS011;11971;51.148;4.104;2023-02-01T12:38:10;71.47;;;33.22;;
23586;SDS011;11971;51.148;4.104;2023-02-01T12:40:50;70.78;;;33.05;;
23586;SDS011;11971;51.148;4.104;2023-02-01T12:43:25;74.00;;;33.30;;
23586;SDS011;11971;51.148;4.104;2023-02-01T12:46:01;74.72;;;33.53;;
23586;SDS011;11971;51.148;4.104;2023-02-01T12:48:36;74.82;;;33.25;;
23586;SDS011;11971;51.148;4.104;2023-02-01T12:51:06;75.82;;;33.47;;
23586;SDS011;11971;51.148;4.104;2023-02-01T12:53:39;70.00;;;32.78;;
23586;SDS011;11971;51.148;4.104;2023-02-01T12:56:14;71.95;;;33.28;;
23586;SDS011;11971;51.148;4.104;2023-02-01T12:58:51;75.75;;;33.53;;
23586;SDS011;11971;51.148;4.104;2023-02-01T13:01:21;71.43;;;33.33;;
23586;SDS011;11971;51.148;4.104;2023-02-01T13:03:54;71.20;;;33.47;;
23586;SDS011;11971;51.148;4.104;2023-02-01T13:06:27;74.75;;;33.10;;
23586;SDS011;11971;51.148;4.104;2023-02-01T13:08:57;74.38;;;33.83;;
23586;SDS011;11971;51.148;4.104;2023-02-01T13:11:27;76.78;;;33.58;;
23586;SDS011;11971;51.148;4.104;2023-02-01T13:14:00;72.88;;;33.38;;
23586;SDS011;11971;51.148;4.104;2023-02-01T13:16:30;76.88;;;33.58;;
23586;SDS011;11971;51.148;4.104;2023-02-01T13:19:00;74.07;;;33.22;;
23586;SDS011;11971;51.148;4.104;2023-02-01T13:21:33;68.88;;;32.28;;
23586;SDS011;11971;51.148;4.104;2023-02-01T13:24:01;81.90;;;33.28;;
23586;SDS011;11971;51.148;4.104;2023-02-01T13:26:28;75.13;;;33.55;;
23586;SDS011;11971;51.148;4.104;2023-02-01T13:28:56;77.55;;;33.33;;
23586;SDS011;11971;51.148;4.104;2023-02-01T13:31:33;70.68;;;33.05;;
23586;SDS011;11971;51.148;4.104;2023-02-01T13:37:20;74.65;;;33.78;;
23586;SDS011;11971;51.148;4.104;2023-02-01T13:40:00;79.00;;;35.35;;
23586;SDS011;11971;51.148;4.104;2023-02-01T13:42:42;75.78;;;33.33;;
23586;SDS011;11971;51.148;4.104;2023-02-01T13:45:13;79.70;;;34.25;;
23586;SDS011;11971;51.148;4.104;2023-02-01T13:47:44;76.88;;;34.67;;
23586;SDS011;11971;51.148;4.104;2023-02-01T13:50:13;76.40;;;33.38;;
23586;SDS011;11971;51.148;4.104;2023-02-01T13:52:51;83.95;;;35.20;;
23586;SDS011;11971;51.148;4.104;2023-02-01T13:55:24;73.20;;;34.95;;
23586;SDS011;11971;51.148;4.104;2023-02-01T13:58:04;73.88;;;34.95;;
23586;SDS011;11971;51.148;4.104;2023-02-01T14:00:36;72.65;;;33.92;;
23586;SDS011;11971;51.148;4.104;2023-02-01T14:03:12;71.00;;;33.50;;
23586;SDS011;11971;51.148;4.104;2023-02-01T14:06:00;73.55;;;34.22;;
23586;SDS011;11971;51.148;4.104;2023-02-01T14:08:45;72.13;;;32.97;;
23586;SDS011;11971;51.148;4.104;2023-02-01T14:23:11;84.50;;;35.67;;
23586;SDS011;11971;51.148;4.104;2023-02-01T14:25:40;70.00;;;33.13;;
23586;SDS011;11971;51.148;4.104;2023-02-01T14:28:10;68.57;;;32.40;;
23586;SDS011;11971;51.148;4.104;2023-02-01T14:30:49;76.38;;;33.55;;
23586;SDS011;11971;51.148;4.104;2023-02-01T14:33:20;78.75;;;33.90;;
23586;SDS011;11971;51.148;4.104;2023-02-01T14:35:59;74.95;;;34.50;;
23586;SDS011;11971;51.148;4.104;2023-02-01T14:38:30;74.88;;;34.00;;
23586;SDS011;11971;51.148;4.104;2023-02-01T14:41:10;83.70;;;35.40;;
23586;SDS011;11971;51.148;4.104;2023-02-01T14:43:59;84.97;;;34.90;;
23586;SDS011;11971;51.148;4.104;2023-02-01T14:50:12;72.38;;;32.78;;
23586;SDS011;11971;51.148;4.104;2023-02-01T14:52:47;76.32;;;34.50;;
23586;SDS011;11971;51.148;4.104;2023-02-01T14:55:21;83.60;;;33.65;;
23586;SDS011;11971;51.148;4.104;2023-02-01T14:57:52;73.70;;;33.50;;
23586;SDS011;11971;51.148;4.104;2023-02-01T15:02:49;77.70;;;34.20;;
23586;SDS011;11971;51.148;4.104;2023-02-01T15:05:23;73.70;;;33.45;;
23586;SDS011;11971;51.148;4.104;2023-02-01T15:07:57;74.68;;;32.65;;
23586;SDS011;11971;51.148;4.104;2023-02-01T15:10:27;74.10;;;33.42;;
23586;SDS011;11971;51.148;4.104;2023-02-01T15:12:56;71.97;;;32.88;;
23586;SDS011;11971;51.148;4.104;2023-02-01T15:15:23;75.47;;;32.95;;
23586;SDS011;11971;51.148;4.104;2023-02-01T15:17:51;86.05;;;34.13;;
23586;SDS011;11971;51.148;4.104;2023-02-01T15:25:31;72.75;;;33.33;;
23586;SDS011;11971;51.148;4.104;2023-02-01T15:28:00;83.03;;;33.90;;